Time;durP1;ratioP1;P1;durP2;ratioP2;P2;SDS_P1;SDS_P2;PMS_P1;PMS_P2;Temp;Humidity;BMP_temperature;BMP_pressure;BME280_temperature;BME280_humidity;BME280_pressure;Samples;Min_cycle;Max_cycle;Signal;HPM_P1;HPM_P2
2022/07/17 00:04:07;;;;;;;0.00;0.00;;;;;;;10.61;100.00;102724.66;10417962;28;20511;-76
2022/07/17 00:09:09;;;;;;;0.00;0.00;;;;;;;10.50;100.00;102729.19;10417680;28;20049;-75
2022/07/17 00:14:11;;;;;;;0.00;0.00;;;;;;;10.49;100.00;102737.75;10416347;28;20045;-75
2022/07/17 00:19:13;;;;;;;0.20;0.20;;;;;;;10.35;100.00;102729.22;10414257;28;20041;-77
2022/07/17 00:24:19;;;;;;;0.00;0.00;;;;;;;10.25;100.00;102729.47;10417011;28;20083;-76
2022/07/17 00:29:21;;;;;;;0.00;0.00;;;;;;;10.03;100.00;102730.84;10417297;28;20045;-75
2022/07/17 00:34:23;;;;;;;0.10;0.10;;;;;;;10.07;100.00;102717.34;10415494;28;20053;-75
2022/07/17 00:39:25;;;;;;;0.00;0.00;;;;;;;10.06;100.00;102724.97;10398744;28;20057;-75
2022/07/17 00:44:27;;;;;;;0.00;0.00;;;;;;;9.89;100.00;102729.16;10415860;28;20084;-75
2022/07/17 00:49:29;;;;;;;0.00;0.00;;;;;;;10.06;100.00;102731.03;10414011;28;20041;-76
2022/07/17 00:54:34;;;;;;;0.00;0.00;;;;;;;9.93;100.00;102732.00;10405907;28;20045;-75
2022/07/17 00:59:37;;;;;;;0.00;0.00;;;;;;;9.79;100.00;102731.19;10412416;28;20063;-75
2022/07/17 01:04:41;;;;;;;0.00;0.00;;;;;;;9.71;100.00;102727.31;10401373;28;20050;-75
2022/07/17 01:09:44;;;;;;;4.30;0.20;;;;;;;9.71;100.00;102718.66;10408422;28;20528;-76
2022/07/17 01:14:46;;;;;;;0.20;0.00;;;;;;;9.77;100.00;102712.22;10441881;28;20049;-76
2022/07/17 01:19:51;;;;;;;0.00;0.00;;;;;;;9.78;100.00;102714.00;10455393;28;20045;-76
2022/07/17 01:24:53;;;;;;;0.00;0.00;;;;;;;9.96;100.00;102710.69;10439282;28;20049;-76
2022/07/17 01:29:56;;;;;;;0.10;0.10;;;;;;;9.76;100.00;102725.88;10406819;28;20069;-75
2022/07/17 01:34:58;;;;;;;0.20;0.10;;;;;;;9.68;100.00;102717.69;10419854;28;20401;-75
2022/07/17 01:39:59;;;;;;;0.30;0.17;;;;;;;9.49;100.00;102720.84;10435790;28;20492;-75
2022/07/17 01:45:02;;;;;;;0.08;0.08;;;;;;;9.45;100.00;102718.91;10421360;28;20063;-75
2022/07/17 01:50:06;;;;;;;0.00;0.00;;;;;;;9.34;100.00;102735.41;10420045;28;20037;-75
2022/07/17 01:55:10;;;;;;;0.08;0.08;;;;;;;9.19;100.00;102746.53;10421817;28;20077;-75
2022/07/17 02:00:16;;;;;;;0.00;0.00;;;;;;;9.18;100.00;102739.63;10420685;28;20037;-76
2022/07/17 02:05:18;;;;;;;0.17;0.10;;;;;;;9.12;100.00;102748.63;10418614;28;20127;-76
2022/07/17 02:10:20;;;;;;;0.00;0.00;;;;;;;9.04;100.00;102743.03;10419661;28;20045;-76
2022/07/17 02:15:21;;;;;;;0.25;0.25;;;;;;;9.07;100.00;102743.19;10418903;28;20060;-76
2022/07/17 02:20:24;;;;;;;0.20;0.10;;;;;;;8.89;100.00;102733.56;10406073;28;20056;-76
2022/07/17 02:25:26;;;;;;;0.10;0.10;;;;;;;8.85;100.00;102729.00;10411601;28;20143;-75
2022/07/17 02:30:29;;;;;;;0.20;0.20;;;;;;;8.94;100.00;102725.22;10416765;28;20484;-75
2022/07/17 02:35:31;;;;;;;0.00;0.00;;;;;;;8.78;100.00;102723.41;10419850;28;20049;-76
2022/07/17 02:40:33;;;;;;;0.10;0.10;;;;;;;8.72;100.00;102735.06;10419317;28;20041;-75
2022/07/17 02:45:35;;;;;;;0.38;0.38;;;;;;;8.64;100.00;102740.50;10423597;28;20465;-75
2022/07/17 02:50:44;;;;;;;0.10;0.10;;;;;;;8.52;100.00;102746.66;10418699;28;20041;-76
2022/07/17 02:55:46;;;;;;;0.30;0.30;;;;;;;8.46;100.00;102746.22;10439832;28;20048;-76
2022/07/17 03:00:48;;;;;;;0.00;0.00;;;;;;;8.47;100.00;102739.44;10419220;28;20103;-75
2022/07/17 03:05:50;;;;;;;0.65;0.20;;;;;;;8.42;100.00;102751.97;10417810;28;20038;-75
2022/07/17 03:10:52;;;;;;;0.10;0.10;;;;;;;8.35;100.00;102767.75;10419689;28;20075;-75
2022/07/17 03:15:53;;;;;;;0.20;0.10;;;;;;;8.39;100.00;102760.34;10418336;28;20060;-75
2022/07/17 03:20:55;;;;;;;0.20;0.20;;;;;;;8.28;100.00;102760.44;10419055;28;20146;-75
2022/07/17 03:25:57;;;;;;;0.10;0.10;;;;;;;8.32;100.00;102754.72;10419428;28;20143;-74
2022/07/17 03:30:59;;;;;;;0.10;0.10;;;;;;;8.28;100.00;102752.75;10417715;28;20068;-74
2022/07/17 03:43:00;;;;;;;0.05;0.05;;;;;;;8.15;100.00;102744.25;10418722;28;20033;-74
2022/07/17 03:48:02;;;;;;;0.00;0.00;;;;;;;8.14;100.00;102739.91;10419458;28;20046;-75
2022/07/17 03:53:04;;;;;;;0.30;0.20;;;;;;;8.19;100.00;102743.66;10415329;28;20053;-75
2022/07/17 03:58:06;;;;;;;0.20;0.10;;;;;;;8.17;100.00;102740.06;10429703;28;20390;-75
2022/07/17 04:03:10;;;;;;;0.47;0.25;;;;;;;8.32;100.00;102729.03;10404256;28;20050;-75
2022/07/17 04:08:12;;;;;;;0.17;0.10;;;;;;;8.45;100.00;102741.84;10412475;28;20058;-75
2022/07/17 04:13:14;;;;;;;0.00;0.00;;;;;;;8.32;100.00;102744.44;10414041;28;20095;-75
2022/07/17 04:18:16;;;;;;;0.30;0.20;;;;;;;8.33;100.00;102748.78;10413821;28;20042;-76
2022/07/17 04:23:18;;;;;;;0.55;0.28;;;;;;;8.24;100.00;102770.50;10414576;28;20056;-75
2022/07/17 04:28:20;;;;;;;0.10;0.08;;;;;;;8.26;100.00;102792.03;10415040;28;20077;-76
2022/07/17 04:33:25;;;;;;;0.17;0.03;;;;;;;8.36;100.00;102795.22;10413862;28;20095;-76
2022/07/17 04:38:27;;;;;;;0.30;0.30;;;;;;;8.54;100.00;102788.72;10395309;28;20115;-76
2022/07/17 04:43:29;;;;;;;0.10;0.10;;;;;;;9.03;100.00;102784.94;10412261;28;20484;-76
2022/07/17 04:48:31;;;;;;;0.15;0.13;;;;;;;9.43;100.00;102794.22;10402828;28;20469;-75
2022/07/17 04:53:33;;;;;;;0.20;0.10;;;;;;;9.68;100.00;102783.72;10394487;28;20136;-76
2022/07/17 04:58:37;;;;;;;0.20;0.17;;;;;;;9.50;100.00;102774.09;10404320;28;20038;-75
2022/07/17 05:03:39;;;;;;;2.47;0.75;;;;;;;9.72;100.00;102785.66;10412934;28;20054;-76
2022/07/17 05:08:40;;;;;;;0.73;0.30;;;;;;;9.60;100.00;102792.66;10412018;28;20045;-75
2022/07/17 05:13:42;;;;;;;0.32;0.20;;;;;;;9.89;100.00;102788.38;10427092;28;20050;-76
2022/07/17 05:18:44;;;;;;;0.00;0.00;;;;;;;9.83;100.00;102787.22;10413309;28;20037;-75
2022/07/17 05:24:10;;;;;;;0.30;0.20;;;;;;;10.03;100.00;102792.63;10413094;28;20053;-75
2022/07/17 05:29:12;;;;;;;0.30;0.30;;;;;;;10.23;100.00;102800.66;10403204;28;20045;-76
2022/07/17 05:34:14;;;;;;;0.38;0.28;;;;;;;11.04;100.00;102832.72;10413856;28;20099;-76
2022/07/17 05:39:15;;;;;;;0.10;0.10;;;;;;;11.53;100.00;102829.34;10411895;28;20045;-76
2022/07/17 05:44:17;;;;;;;0.50;0.20;;;;;;;11.81;100.00;102793.72;10414795;28;20056;-74
2022/07/17 05:49:21;;;;;;;0.88;0.40;;;;;;;11.90;100.00;102769.25;10430520;28;20038;-75
2022/07/17 05:54:24;;;;;;;0.25;0.25;;;;;;;12.09;100.00;102759.88;10451029;28;20049;-75
2022/07/17 05:59:26;;;;;;;0.63;0.20;;;;;;;12.06;100.00;102760.59;10430668;28;20072;-75
2022/07/17 06:04:28;;;;;;;0.90;0.50;;;;;;;12.13;100.00;102768.66;10412733;28;20050;-76
2022/07/17 06:09:29;;;;;;;0.00;0.00;;;;;;;12.46;100.00;102772.00;10412856;28;20050;-75
2022/07/17 06:14:31;;;;;;;1.77;0.45;;;;;;;12.94;100.00;102758.69;10412960;28;20045;-75
2022/07/17 06:19:33;;;;;;;0.35;0.35;;;;;;;13.15;100.00;102750.13;10416722;28;20091;-75
2022/07/17 06:24:34;;;;;;;1.17;0.35;;;;;;;13.57;100.00;102752.91;10421827;28;20049;-75
2022/07/17 06:29:36;;;;;;;0.65;0.45;;;;;;;14.27;100.00;102751.47;10421550;28;20051;-75
2022/07/17 06:34:41;;;;;;;0.45;0.20;;;;;;;14.55;100.00;102755.16;10420966;28;20087;-76
2022/07/17 06:39:43;;;;;;;0.75;0.32;;;;;;;14.88;100.00;102756.44;10419958;28;20054;-76
2022/07/17 06:44:45;;;;;;;0.40;0.38;;;;;;;15.13;100.00;102732.28;10420766;28;20041;-75
2022/07/17 06:49:46;;;;;;;1.20;0.30;;;;;;;15.40;100.00;102734.06;10402915;28;20045;-74
2022/07/17 06:54:48;;;;;;;0.40;0.35;;;;;;;15.43;100.00;102757.56;10420569;28;20056;-76
2022/07/17 06:59:49;;;;;;;0.15;0.10;;;;;;;15.25;100.00;102746.50;10419105;28;20046;-75
2022/07/17 07:04:51;;;;;;;0.00;0.00;;;;;;;16.21;100.00;102760.19;10420246;28;20045;-76
2022/07/17 07:09:53;;;;;;;0.10;0.10;;;;;;;16.55;100.00;102751.72;10419961;28;20046;-76
2022/07/17 07:14:54;;;;;;;0.77;0.55;;;;;;;17.97;100.00;102757.44;10418085;28;20041;-76
2022/07/17 07:19:56;;;;;;;0.45;0.30;;;;;;;17.84;88.45;102747.47;10417987;28;20099;-76
2022/07/17 07:24:58;;;;;;;0.47;0.30;;;;;;;18.51;91.21;102753.47;10419119;28;20037;-76
2022/07/17 07:30:00;;;;;;;0.28;0.28;;;;;;;18.52;89.92;102754.34;10416393;28;20107;-75
2022/07/17 07:35:01;;;;;;;0.50;0.30;;;;;;;19.55;89.16;102746.84;10417668;28;20428;-74
2022/07/17 07:40:04;;;;;;;0.20;0.20;;;;;;;19.81;78.27;102747.31;10417508;28;20057;-75
2022/07/17 07:45:07;;;;;;;0.10;0.10;;;;;;;20.36;81.96;102765.66;10400525;28;20045;-76
2022/07/17 07:50:09;;;;;;;5.63;0.50;;;;;;;20.09;76.22;102771.34;10417212;28;20042;-76
2022/07/17 07:55:12;;;;;;;0.10;0.10;;;;;;;20.05;76.75;102769.53;10410092;28;20490;-78
2022/07/17 08:00:20;;;;;;;0.00;0.00;;;;;;;20.13;66.98;102767.94;10391537;28;20041;-78
2022/07/17 08:05:22;;;;;;;0.20;0.20;;;;;;;20.27;70.81;102753.31;10407633;28;20053;-78
2022/07/17 08:10:24;;;;;;;0.00;0.00;;;;;;;21.54;68.21;102752.25;10404343;28;20140;-79
2022/07/17 08:15:26;;;;;;;0.00;0.00;;;;;;;20.15;61.15;102766.19;10409617;28;20443;-79
2022/07/17 08:20:28;;;;;;;0.38;0.30;;;;;;;21.99;70.94;102754.41;10413622;28;20045;-79
2022/07/17 08:25:30;;;;;;;2.13;0.40;;;;;;;21.46;66.25;102756.56;10411141;28;20045;-78
2022/07/17 08:30:34;;;;;;;0.00;0.00;;;;;;;22.21;66.57;102754.56;10409104;28;20092;-79
2022/07/17 08:35:37;;;;;;;0.08;0.03;;;;;;;22.72;66.48;102753.13;10408599;28;20136;-80
2022/07/17 08:40:39;;;;;;;0.10;0.10;;;;;;;21.72;64.27;102755.94;10407758;28;20042;-79
2022/07/17 08:45:43;;;;;;;3.22;0.70;;;;;;;21.49;61.75;102756.56;10408722;28;20041;-80
2022/07/17 08:50:48;;;;;;;0.00;0.00;;;;;;;22.11;61.59;102743.13;10397396;28;20038;-80
2022/07/17 08:55:50;;;;;;;0.00;0.00;;;;;;;22.00;60.41;102750.94;10410817;28;20091;-80
2022/07/17 09:00:52;;;;;;;0.10;0.10;;;;;;;22.38;62.95;102752.91;10409510;28;20037;-80
2022/07/17 09:05:54;;;;;;;0.47;0.20;;;;;;;22.37;60.08;102750.28;10412736;28;20483;-80
2022/07/17 09:10:56;;;;;;;0.08;0.08;;;;;;;21.81;60.34;102744.66;10414624;28;20048;-81
2022/07/17 09:16:12;;;;;;;0.00;0.00;;;;;;;22.28;52.26;102743.25;10414654;28;20507;-80
2022/07/17 09:21:32;;;;;;;0.00;0.00;;;;;;;23.11;64.32;102735.75;10421942;28;20051;-80
2022/07/17 09:26:37;;;;;;;0.00;0.00;;;;;;;23.47;54.04;102738.47;10409869;28;20425;-79
2022/07/17 09:31:39;;;;;;;0.00;0.00;;;;;;;23.09;49.65;102737.50;10397289;28;20133;-80
2022/07/17 09:36:41;;;;;;;0.20;0.20;;;;;;;22.64;54.83;102739.09;10407961;28;20053;-79
2022/07/17 09:41:43;;;;;;;0.60;0.60;;;;;;;22.73;48.89;102736.50;10406016;28;20046;-81
2022/07/17 09:46:45;;;;;;;3.47;0.82;;;;;;;22.77;57.91;102740.03;10407483;28;20054;-79
2022/07/17 09:51:48;;;;;;;0.00;0.00;;;;;;;23.27;51.55;102741.09;10405371;28;20133;-79
2022/07/17 09:56:51;;;;;;;0.00;0.00;;;;;;;23.19;46.56;102745.44;10416652;28;20132;-79
2022/07/17 10:01:53;;;;;;;0.00;0.00;;;;;;;23.09;45.90;102745.38;10418767;28;20544;-80
2022/07/17 10:06:55;;;;;;;0.10;0.10;;;;;;;23.43;45.37;102737.56;10416752;28;20602;-80
2022/07/17 10:11:58;;;;;;;0.10;0.10;;;;;;;24.30;51.18;102731.41;10416724;28;20113;-81
2022/07/17 10:17:13;;;;;;;0.00;0.00;;;;;;;23.47;45.17;102742.84;10405026;28;20044;-80
2022/07/17 10:22:20;;;;;;;0.32;0.10;;;;;;;24.43;43.63;102737.53;10433969;28;20132;-80
2022/07/17 10:27:28;;;;;;;0.52;0.10;;;;;;;23.85;48.05;102734.97;10416247;28;20464;-81
2022/07/17 10:32:30;;;;;;;0.00;0.00;;;;;;;23.87;43.32;102737.59;10415410;28;20072;-81
2022/07/17 10:37:39;;;;;;;0.30;0.15;;;;;;;24.44;52.18;102734.00;10401718;28;20059;-82
2022/07/17 10:42:59;;;;;;;0.05;0.00;;;;;;;22.35;48.99;102739.78;10416402;28;20132;-82
2022/07/17 10:48:12;;;;;;;0.10;0.10;;;;;;;24.20;42.98;102735.81;10413892;28;20049;-81
2022/07/17 10:53:35;;;;;;;0.20;0.20;;;;;;;24.23;57.01;102728.78;10415312;28;20556;-82
2022/07/17 10:58:39;;;;;;;0.00;0.00;;;;;;;24.21;42.94;102727.06;10417754;28;20041;-81
2022/07/17 11:03:46;;;;;;;0.00;0.00;;;;;;;24.21;45.21;102734.94;10434343;28;20045;-80
2022/07/17 11:08:51;;;;;;;0.00;0.00;;;;;;;24.86;44.87;102737.38;10423402;28;20045;-82
2022/07/17 11:13:53;;;;;;;0.03;0.03;;;;;;;23.82;41.95;102731.47;10417493;28;20069;-81
2022/07/17 11:18:56;;;;;;;0.00;0.00;;;;;;;24.33;41.77;102727.00;10418706;28;20045;-81
2022/07/17 11:23:57;;;;;;;0.00;0.00;;;;;;;24.59;43.69;102717.25;10415685;28;20115;-80
2022/07/17 11:29:08;;;;;;;0.00;0.00;;;;;;;24.29;43.80;102720.00;10413113;28;20096;-81
2022/07/17 11:34:11;;;;;;;4.53;0.35;;;;;;;24.82;43.95;102706.66;10399308;28;20044;-80
2022/07/17 11:39:18;;;;;;;0.45;0.10;;;;;;;24.90;41.09;102711.88;10402672;28;20559;-80
2022/07/17 11:44:24;;;;;;;0.65;0.20;;;;;;;24.82;41.45;102709.28;10407732;28;20480;-80
2022/07/17 11:49:32;;;;;;;0.03;0.03;;;;;;;24.89;37.61;102711.00;10447640;28;20111;-80
2022/07/17 11:54:46;;;;;;;0.00;0.00;;;;;;;24.44;37.44;102707.66;10414019;28;20481;-80
2022/07/17 11:59:48;;;;;;;0.00;0.00;;;;;;;25.38;38.20;102703.66;10403806;28;20076;-80
2022/07/17 12:04:53;;;;;;;0.00;0.00;;;;;;;25.35;36.18;102702.78;10416730;28;20612;-80
2022/07/17 12:09:55;;;;;;;0.00;0.00;;;;;;;25.10;37.11;102698.56;10416280;28;20485;-80
2022/07/17 12:14:58;;;;;;;0.00;0.00;;;;;;;25.18;37.12;102692.34;10415740;28;20072;-80
2022/07/17 12:20:04;;;;;;;0.00;0.00;;;;;;;25.22;37.51;102687.94;10409106;28;20040;-81
2022/07/17 12:25:07;;;;;;;1.10;0.30;;;;;;;24.60;37.57;102696.19;10406109;28;20073;-80
2022/07/17 12:30:09;;;;;;;0.00;0.00;;;;;;;25.29;41.58;102673.81;10405521;28;20050;-81
2022/07/17 12:35:11;;;;;;;0.32;0.13;;;;;;;25.54;38.30;102676.28;10416325;28;20073;-80
2022/07/17 12:40:13;;;;;;;0.00;0.00;;;;;;;25.32;41.80;102672.91;10414744;28;20038;-80
2022/07/17 12:45:16;;;;;;;0.00;0.00;;;;;;;25.29;40.25;102679.09;10413833;28;20095;-80
2022/07/17 12:50:18;;;;;;;0.00;0.00;;;;;;;25.29;38.44;102673.81;10413867;28;20099;-81
2022/07/17 12:55:20;;;;;;;0.00;0.00;;;;;;;25.28;37.37;102671.19;10413076;28;20128;-80
2022/07/17 13:00:22;;;;;;;0.17;0.08;;;;;;;25.84;39.24;102676.88;10413555;28;20056;-80
2022/07/17 13:05:25;;;;;;;0.40;0.20;;;;;;;25.25;39.12;102676.47;10411622;28;20045;-80
2022/07/17 13:10:27;;;;;;;0.10;0.08;;;;;;;25.11;37.13;102677.47;10415578;28;20055;-80
2022/07/17 13:15:28;;;;;;;0.00;0.00;;;;;;;25.58;39.58;102670.06;10413001;28;20041;-79
2022/07/17 13:20:30;;;;;;;0.00;0.00;;;;;;;25.55;40.66;102659.56;10412435;28;20401;-80
2022/07/17 13:25:32;;;;;;;0.43;0.15;;;;;;;24.94;38.14;102660.91;10400514;28;20505;-80
2022/07/17 13:30:35;;;;;;;0.30;0.25;;;;;;;25.34;40.77;102656.19;10404182;28;20129;-80
2022/07/17 13:35:39;;;;;;;0.00;0.00;;;;;;;24.78;37.91;102644.28;10427985;28;20049;-80
2022/07/17 13:40:41;;;;;;;0.00;0.00;;;;;;;25.17;41.00;102640.50;10421482;28;20124;-80
2022/07/17 13:45:43;;;;;;;0.15;0.15;;;;;;;25.06;40.16;102633.56;10421637;28;20497;-80
2022/07/17 13:50:45;;;;;;;0.10;0.10;;;;;;;25.40;40.14;102625.41;10421932;28;20473;-80
2022/07/17 13:55:47;;;;;;;0.00;0.00;;;;;;;24.92;40.32;102618.72;10422279;28;20041;-80
2022/07/17 14:01:01;;;;;;;0.00;0.00;;;;;;;25.17;40.22;102618.53;10419936;28;20061;-78
2022/07/17 14:06:05;;;;;;;0.30;0.28;;;;;;;25.15;39.24;102609.75;10404792;28;20569;-79
2022/07/17 14:11:11;;;;;;;0.17;0.13;;;;;;;25.44;39.47;102598.97;10410505;28;20038;-79
2022/07/17 14:16:12;;;;;;;0.00;0.00;;;;;;;25.03;38.88;102595.78;10414116;28;20050;-80
2022/07/17 14:21:14;;;;;;;0.00;0.00;;;;;;;25.15;41.17;102592.19;10418166;28;20037;-80
2022/07/17 14:26:16;;;;;;;0.00;0.00;;;;;;;24.72;36.68;102589.88;10424452;28;20071;-80
2022/07/17 14:31:18;;;;;;;0.00;0.00;;;;;;;24.63;38.71;102577.59;10415925;28;20125;-80
2022/07/17 14:36:20;;;;;;;0.50;0.30;;;;;;;25.30;38.28;102570.03;10429507;28;20095;-79
2022/07/17 14:41:22;;;;;;;0.10;0.10;;;;;;;24.93;34.82;102577.41;10417600;28;20065;-79
2022/07/17 14:46:24;;;;;;;0.00;0.00;;;;;;;24.67;33.34;102579.34;10431534;28;20041;-80
2022/07/17 14:51:26;;;;;;;0.00;0.00;;;;;;;25.16;37.73;102582.50;10416978;28;20065;-80
2022/07/17 14:56:28;;;;;;;0.03;0.03;;;;;;;25.24;37.10;102572.75;10420835;28;20060;-79
2022/07/17 15:01:31;;;;;;;0.00;0.00;;;;;;;25.58;36.41;102561.88;10424999;28;20053;-80
2022/07/17 15:06:32;;;;;;;0.20;0.20;;;;;;;25.60;38.62;102564.53;10405177;28;20055;-79
2022/07/17 15:11:35;;;;;;;0.00;0.00;;;;;;;25.00;37.04;102568.56;10418234;28;20049;-80
2022/07/17 15:16:36;;;;;;;0.10;0.10;;;;;;;24.95;36.54;102555.44;10409890;28;20061;-79
2022/07/17 15:21:39;;;;;;;0.00;0.00;;;;;;;25.05;38.63;102558.84;10436426;28;20098;-80
2022/07/17 15:26:53;;;;;;;0.00;0.00;;;;;;;25.25;36.08;102561.31;10407924;28;20034;-80
2022/07/17 15:31:55;;;;;;;0.13;0.13;;;;;;;25.22;37.77;102566.59;10412338;28;20045;-79
2022/07/17 15:36:57;;;;;;;0.00;0.00;;;;;;;25.23;38.27;102560.44;10420366;28;20475;-79
2022/07/17 15:41:59;;;;;;;0.00;0.00;;;;;;;25.45;40.33;102562.91;10411526;28;20047;-79
2022/07/17 15:47:01;;;;;;;0.00;0.00;;;;;;;25.23;38.72;102556.94;10411821;28;20088;-79
2022/07/17 15:52:03;;;;;;;0.17;0.17;;;;;;;25.46;39.73;102543.56;10412514;28;20041;-80
2022/07/17 15:57:05;;;;;;;0.20;0.00;;;;;;;25.01;37.86;102536.91;10412832;28;20052;-80
2022/07/17 16:02:06;;;;;;;0.10;0.10;;;;;;;25.18;43.23;102533.25;10411692;28;20038;-80
2022/07/17 16:07:09;;;;;;;0.30;0.00;;;;;;;25.02;41.74;102521.94;10424719;28;20055;-80
2022/07/17 16:12:10;;;;;;;0.00;0.00;;;;;;;24.97;36.11;102529.94;10441286;28;20079;-80
2022/07/17 16:17:12;;;;;;;0.00;0.00;;;;;;;25.02;34.94;102516.69;10427753;28;20110;-80
2022/07/17 16:22:14;;;;;;;0.13;0.05;;;;;;;24.83;35.86;102511.59;10410746;28;20052;-80
2022/07/17 16:27:15;;;;;;;0.00;0.00;;;;;;;25.28;39.42;102505.88;10405402;28;20103;-81
2022/07/17 16:32:17;;;;;;;0.00;0.00;;;;;;;25.10;38.04;102493.75;10410567;28;20041;-81
2022/07/17 16:37:19;;;;;;;0.00;0.00;;;;;;;25.01;34.66;102489.44;10406725;28;20099;-79
2022/07/17 16:42:21;;;;;;;0.10;0.00;;;;;;;24.84;34.98;102480.81;10409395;28;20063;-80
2022/07/17 16:47:23;;;;;;;0.50;0.10;;;;;;;24.75;38.83;102465.09;10423699;28;20051;-80
2022/07/17 16:52:26;;;;;;;0.08;0.08;;;;;;;25.05;36.37;102465.72;10410692;28;20062;-80
2022/07/17 16:57:27;;;;;;;0.20;0.20;;;;;;;24.61;35.54;102466.03;10410909;28;20485;-80
2022/07/17 17:02:29;;;;;;;0.17;0.17;;;;;;;24.57;36.86;102461.69;10409582;28;20095;-80
2022/07/17 17:07:31;;;;;;;0.00;0.00;;;;;;;24.57;37.01;102456.44;10409933;28;20049;-81
2022/07/17 17:12:34;;;;;;;0.43;0.38;;;;;;;24.27;33.75;102462.81;10408773;28;20068;-80
2022/07/17 17:17:37;;;;;;;0.28;0.20;;;;;;;24.32;35.30;102461.88;10389052;28;20459;-80
2022/07/17 17:22:39;;;;;;;0.10;0.10;;;;;;;24.36;36.70;102457.47;10414052;28;20041;-81
2022/07/17 17:27:40;;;;;;;0.30;0.00;;;;;;;24.24;36.79;102453.16;10408717;28;20503;-80
2022/07/17 17:32:45;;;;;;;0.00;0.00;;;;;;;23.85;38.48;102447.22;10412626;28;20140;-80
2022/07/17 17:37:46;;;;;;;0.40;0.20;;;;;;;23.66;40.74;102464.84;10394575;28;20574;-81
2022/07/17 17:42:48;;;;;;;0.00;0.00;;;;;;;23.51;41.18;102471.03;10415773;28;20044;-80
2022/07/17 17:47:50;;;;;;;0.00;0.00;;;;;;;23.97;42.75;102481.41;10423163;28;20042;-80
2022/07/17 17:52:51;;;;;;;0.10;0.05;;;;;;;23.92;44.31;102484.03;10406028;28;20485;-80
2022/07/17 17:57:53;;;;;;;0.93;0.43;;;;;;;23.87;40.57;102469.13;10409018;28;20046;-80
2022/07/17 18:02:55;;;;;;;0.00;0.00;;;;;;;23.80;37.84;102446.34;10409110;28;20045;-80
2022/07/17 18:07:56;;;;;;;0.52;0.45;;;;;;;23.69;42.01;102449.94;10408488;28;20041;-80
2022/07/17 18:12:58;;;;;;;0.03;0.03;;;;;;;23.61;41.62;102428.91;10405214;28;20455;-80
2022/07/17 18:18:00;;;;;;;0.28;0.13;;;;;;;23.35;38.69;102439.53;10415044;28;20057;-80
2022/07/17 18:23:02;;;;;;;0.05;0.05;;;;;;;23.23;47.23;102448.31;10414797;28;20045;-80
2022/07/17 18:28:08;;;;;;;1.33;0.50;;;;;;;23.25;39.95;102428.16;10416289;28;20037;-80
2022/07/17 18:33:09;;;;;;;0.40;0.08;;;;;;;23.06;45.88;102435.19;10403845;28;20428;-80
2022/07/17 18:38:12;;;;;;;0.00;0.00;;;;;;;22.77;51.48;102446.63;10412980;28;20116;-80
2022/07/17 18:43:13;;;;;;;0.00;0.00;;;;;;;22.41;58.80;102458.88;10411810;28;20393;-80
2022/07/17 18:48:15;;;;;;;0.10;0.00;;;;;;;22.09;56.04;102456.16;10398093;28;20509;-80
2022/07/17 18:53:18;;;;;;;0.30;0.17;;;;;;;22.47;48.60;102442.25;10404612;28;20033;-80
2022/07/17 18:58:21;;;;;;;0.00;0.00;;;;;;;22.02;63.73;102445.66;10406966;28;20073;-79
2022/07/17 19:03:22;;;;;;;0.00;0.00;;;;;;;21.85;67.57;102444.72;10391020;28;20074;-80
2022/07/17 19:08:24;;;;;;;0.00;0.00;;;;;;;21.43;74.98;102447.13;10387600;28;20046;-80
2022/07/17 19:13:26;;;;;;;0.10;0.00;;;;;;;21.42;59.22;102450.63;10402874;28;20052;-80
2022/07/17 19:18:28;;;;;;;0.00;0.00;;;;;;;20.85;66.17;102443.28;10393897;28;20048;-80
2022/07/17 19:23:30;;;;;;;0.43;0.20;;;;;;;21.00;61.33;102444.25;10408991;28;20052;-80
2022/07/17 19:28:32;;;;;;;0.00;0.00;;;;;;;20.41;69.89;102441.13;10417264;28;20737;-80
2022/07/17 19:33:34;;;;;;;0.00;0.00;;;;;;;20.47;64.16;102451.66;10413166;28;20100;-79
2022/07/17 19:38:36;;;;;;;0.30;0.20;;;;;;;20.07;64.71;102448.63;10415132;28;20045;-79
2022/07/17 19:43:38;;;;;;;0.10;0.10;;;;;;;19.92;68.37;102450.19;10418280;28;20056;-80
2022/07/17 19:48:40;;;;;;;0.00;0.00;;;;;;;19.69;74.02;102459.50;10415938;28;20473;-79
2022/07/17 19:53:41;;;;;;;0.00;0.00;;;;;;;19.12;84.70;102475.22;10416248;28;20164;-79
2022/07/17 19:58:47;;;;;;;0.00;0.00;;;;;;;18.95;81.05;102478.44;10452741;28;20049;-79
2022/07/17 20:03:48;;;;;;;0.00;0.00;;;;;;;18.86;77.96;102475.69;10424186;28;20124;-78
2022/07/17 20:08:50;;;;;;;0.00;0.00;;;;;;;18.64;77.57;102475.31;10436928;28;20048;-79
2022/07/17 20:13:54;;;;;;;0.22;0.10;;;;;;;18.41;85.62;102474.03;10427238;28;20034;-78
2022/07/17 20:18:56;;;;;;;0.40;0.35;;;;;;;18.30;81.39;102466.88;10434416;28;20451;-79
2022/07/17 20:23:58;;;;;;;0.00;0.00;;;;;;;18.25;80.59;102465.91;10439799;28;20075;-78
2022/07/17 20:29:00;;;;;;;0.32;0.20;;;;;;;18.15;83.73;102462.25;10439568;28;20128;-79
2022/07/17 20:34:03;;;;;;;0.70;0.20;;;;;;;17.94;86.41;102449.63;10432452;28;20039;-79
2022/07/17 20:39:05;;;;;;;0.13;0.03;;;;;;;17.83;85.93;102448.53;10438929;28;20404;-78
2022/07/17 20:44:07;;;;;;;0.32;0.32;;;;;;;17.63;88.88;102446.38;10444858;28;20561;-79
2022/07/17 20:49:09;;;;;;;0.10;0.10;;;;;;;17.50;89.87;102449.56;10433830;28;20065;-79
2022/07/17 20:54:18;;;;;;;0.40;0.35;;;;;;;17.46;89.27;102448.63;10414921;28;20445;-78
2022/07/17 20:59:20;;;;;;;;;;;;;;;17.29;94.22;102445.66;10414653;28;20041;-78
2022/07/17 21:04:21;;;;;;;0.17;0.15;;;;;;;17.08;93.54;102446.94;10415154;28;19964;-79
2022/07/17 21:09:23;;;;;;;0.65;0.20;;;;;;;16.69;100.00;102452.88;10413052;28;20483;-79
2022/07/17 21:14:25;;;;;;;0.25;0.25;;;;;;;16.45;100.00;102451.41;10406969;28;20033;-79
2022/07/17 21:19:27;;;;;;;0.00;0.00;;;;;;;16.25;100.00;102455.19;10414145;28;20072;-79
2022/07/17 21:24:29;;;;;;;0.20;0.10;;;;;;;16.10;100.00;102456.53;10414265;28;20045;-79
2022/07/17 21:29:31;;;;;;;1.35;0.35;;;;;;;15.85;100.00;102458.44;10412905;28;20069;-79
2022/07/17 21:34:33;;;;;;;0.20;0.20;;;;;;;15.64;100.00;102465.56;10414358;28;20092;-78
2022/07/17 21:39:34;;;;;;;0.10;0.10;;;;;;;15.61;100.00;102470.66;10414011;28;20481;-79
2022/07/17 21:44:36;;;;;;;0.15;0.10;;;;;;;15.70;100.00;102465.75;10408390;28;20132;-78
2022/07/17 21:49:38;;;;;;;0.35;0.35;;;;;;;15.59;100.00;102456.75;10414651;28;20465;-78
2022/07/17 21:54:39;;;;;;;1.65;0.47;;;;;;;15.59;100.00;102456.75;10417052;28;20057;-79
2022/07/17 21:59:41;;;;;;;0.10;0.00;;;;;;;15.53;100.00;102447.94;10415945;28;20041;-78
2022/07/17 22:04:44;;;;;;;1.08;0.25;;;;;;;15.50;100.00;102446.94;10402548;28;20096;-78
2022/07/17 22:09:46;;;;;;;0.52;0.20;;;;;;;15.32;100.00;102455.06;10416927;28;20041;-78
2022/07/17 22:14:47;;;;;;;0.85;0.43;;;;;;;15.11;100.00;102448.38;10415146;28;20047;-78
2022/07/17 22:19:49;;;;;;;0.15;0.15;;;;;;;14.93;100.00;102455.56;10416384;28;20057;-78
2022/07/17 22:24:52;;;;;;;0.20;0.20;;;;;;;14.85;100.00;102464.00;10416767;28;20051;-78
2022/07/17 22:29:54;;;;;;;0.73;0.10;;;;;;;14.70;100.00;102461.75;10416897;28;20124;-78
2022/07/17 22:34:55;;;;;;;0.90;0.20;;;;;;;14.46;100.00;102461.75;10420575;28;20033;-78
2022/07/17 22:39:57;;;;;;;0.00;0.00;;;;;;;14.34;100.00;102471.69;10415010;28;20091;-78
2022/07/17 22:44:59;;;;;;;0.45;0.30;;;;;;;14.48;100.00;102473.09;10415986;28;20493;-78
2022/07/17 22:50:02;;;;;;;0.30;0.30;;;;;;;14.51;100.00;102465.38;10414117;28;20045;-78
2022/07/17 22:55:04;;;;;;;0.00;0.00;;;;;;;14.35;100.00;102466.56;10415149;28;20041;-78
2022/07/17 23:00:08;;;;;;;0.00;0.00;;;;;;;14.16;100.00;102478.00;10412734;28;20053;-77
2022/07/17 23:05:11;;;;;;;0.10;0.10;;;;;;;14.15;100.00;102473.63;10413132;28;20132;-79
2022/07/17 23:10:13;;;;;;;0.00;0.00;;;;;;;14.02;100.00;102477.47;10414242;28;20407;-79
2022/07/17 23:15:15;;;;;;;0.98;0.20;;;;;;;13.92;100.00;102486.63;10414665;28;20045;-79
2022/07/17 23:20:17;;;;;;;0.20;0.20;;;;;;;13.88;100.00;102487.34;10412626;28;20045;-79